createdAt,value
2016-06-10T00:00:54.895Z,0
2016-06-10T00:01:55.023Z,0
2016-06-10T00:02:55.026Z,0
2016-06-10T00:03:54.983Z,0
2016-06-10T00:04:54.798Z,0
2016-06-10T00:05:54.927Z,0
2016-06-10T00:06:54.913Z,0
2016-06-10T00:07:54.886Z,0
2016-06-10T00:08:54.842Z,0
2016-06-10T00:09:56.033Z,0
2016-06-10T00:10:54.801Z,0
2016-06-10T00:11:54.773Z,0
2016-06-10T00:12:54.604Z,0
2016-06-10T00:13:54.732Z,0
2016-06-10T00:14:54.720Z,0
2016-06-10T00:15:54.707Z,0
2016-06-10T00:16:59.585Z,0
2016-06-10T00:17:59.620Z,0
2016-06-10T00:19:02.483Z,0
2016-06-10T00:20:00.610Z,0
2016-06-10T00:20:57.394Z,0
2016-06-10T00:21:54.695Z,0
2016-06-10T00:23:01.495Z,0
2016-06-10T00:24:01.778Z,0
2016-06-10T00:25:02.438Z,0
2016-06-10T00:26:00.738Z,0
2016-06-10T00:27:00.991Z,0
2016-06-10T00:28:01.213Z,0
2016-06-10T00:29:00.919Z,0
2016-06-10T00:30:01.141Z,0
2016-06-10T00:31:01.112Z,0
2016-06-10T00:32:00.834Z,0
2016-06-10T00:33:00.978Z,0
2016-06-10T00:34:00.762Z,0
2016-06-10T00:35:00.625Z,0
2016-06-10T00:36:00.847Z,0
2016-06-10T00:37:00.631Z,0
2016-06-10T00:38:01.275Z,0
2016-06-10T00:39:01.169Z,0
2016-06-10T00:40:00.906Z,0
2016-06-10T00:40:58.643Z,0
2016-06-10T00:41:54.084Z,0
2016-06-10T00:42:54.056Z,0
2016-06-10T00:43:54.028Z,0
2016-06-10T00:44:53.999Z,0
2016-06-10T00:45:53.987Z,0
2016-06-10T00:46:53.959Z,0
2016-06-10T00:47:53.947Z,0
2016-06-10T00:48:53.918Z,0
2016-06-10T00:49:53.905Z,0
2016-06-10T00:50:53.878Z,0
2016-06-10T00:51:53.849Z,0
2016-06-10T00:52:53.821Z,0
2016-06-10T00:53:53.793Z,0
2016-06-10T00:54:53.561Z,0
2016-06-10T00:55:53.736Z,0
2016-06-10T00:56:53.724Z,0
2016-06-10T00:57:53.695Z,0
2016-06-10T00:58:53.683Z,0
2016-06-10T00:59:53.656Z,0
2016-06-10T01:00:53.471Z,0
2016-06-10T01:01:53.599Z,0
2016-06-10T01:02:53.586Z,0
2016-06-10T01:03:53.574Z,0
2016-06-10T01:04:53.374Z,0
2016-06-10T01:05:53.502Z,0
2016-06-10T01:06:53.489Z,0
2016-06-10T01:07:53.461Z,0
2016-06-10T01:08:53.433Z,0
2016-06-10T01:09:53.748Z,0
2016-06-10T01:10:53.236Z,0
2016-06-10T01:11:53.364Z,0
2016-06-10T01:12:53.352Z,0
2016-06-10T01:13:53.324Z,0
2016-06-10T01:14:53.295Z,0
2016-06-10T01:15:53.283Z,0
2016-06-10T01:16:53.083Z,0
2016-06-10T01:17:53.211Z,0
2016-06-10T01:18:53.214Z,0
2016-06-10T01:19:53.170Z,0
2016-06-10T01:20:53.158Z,0
2016-06-10T01:21:53.129Z,0
2016-06-10T01:22:53.085Z,0
2016-06-10T01:23:53.119Z,0
2016-06-10T01:24:53.154Z,0
2016-06-10T01:25:53.141Z,0
2016-06-10T01:26:53.004Z,0
2016-06-10T01:27:52.975Z,0
2016-06-10T01:28:52.963Z,0
2016-06-10T01:29:52.762Z,0
2016-06-10T01:30:52.907Z,0
2016-06-10T01:31:52.878Z,0
2016-06-10T01:32:52.694Z,0
2016-06-10T01:33:52.838Z,0
2016-06-10T01:34:52.809Z,0
2016-06-10T01:35:52.781Z,0
2016-06-10T01:36:52.754Z,0
2016-06-10T01:37:52.725Z,0
2016-06-10T01:38:52.712Z,0
2016-06-10T01:39:53.435Z,0
2016-06-10T01:40:52.516Z,0
2016-06-10T01:41:52.643Z,0
2016-06-10T01:42:52.616Z,0
2016-06-10T01:43:52.587Z,0
2016-06-10T01:44:52.575Z,0
2016-06-10T01:45:52.531Z,0
2016-06-10T01:46:52.518Z,0
2016-06-10T01:47:52.490Z,0
2016-06-10T01:48:52.477Z,0
2016-06-10T01:49:52.434Z,0
2016-06-10T01:50:52.421Z,0
2016-06-10T01:51:52.394Z,0
2016-06-10T01:52:52.365Z,0
2016-06-10T01:53:52.352Z,0
2016-06-10T01:54:53.137Z,0
2016-06-10T01:55:52.703Z,0
2016-06-10T01:56:52.283Z,0
2016-06-10T01:57:52.271Z,0
2016-06-10T01:58:52.243Z,0
2016-06-10T01:59:52.058Z,0
2016-06-10T02:00:52.171Z,0
2016-06-10T02:01:52.002Z,0
2016-06-10T02:02:52.114Z,0
2016-06-10T02:03:52.086Z,0
2016-06-10T02:04:52.073Z,0
2016-06-10T02:05:52.046Z,0
2016-06-10T02:06:52.017Z,0
2016-06-10T02:07:52.005Z,0
2016-06-10T02:08:51.977Z,0
2016-06-10T02:09:51.948Z,0
2016-06-10T02:10:52.592Z,0
2016-06-10T02:11:51.907Z,0
2016-06-10T02:12:51.880Z,0
2016-06-10T02:13:51.851Z,0
2016-06-10T02:14:51.682Z,0
2016-06-10T02:15:51.810Z,0
2016-06-10T02:16:51.798Z,0
2016-06-10T02:17:51.771Z,0
2016-06-10T02:18:51.726Z,0
2016-06-10T02:19:51.713Z,0
2016-06-10T02:20:51.669Z,0
2016-06-10T02:21:51.672Z,0
2016-06-10T02:22:51.645Z,0
2016-06-10T02:23:51.616Z,0
2016-06-10T02:24:51.604Z,0
2016-06-10T02:25:51.873Z,0
2016-06-10T02:26:51.532Z,0
2016-06-10T02:27:51.379Z,0
2016-06-10T02:28:51.507Z,0
2016-06-10T02:29:51.463Z,0
2016-06-10T02:30:51.436Z,0
2016-06-10T02:31:51.406Z,0
2016-06-10T02:32:51.394Z,0
2016-06-10T02:33:51.366Z,0
2016-06-10T02:34:51.354Z,0
2016-06-10T02:35:51.309Z,0
2016-06-10T02:36:51.312Z,0
2016-06-10T02:37:51.316Z,0
2016-06-10T02:38:51.295Z,0
2016-06-10T02:39:51.319Z,0
2016-06-10T02:40:51.704Z,0
2016-06-10T02:41:51.339Z,0
2016-06-10T02:42:51.338Z,0
2016-06-10T02:43:51.339Z,0
2016-06-10T02:44:51.325Z,0
2016-06-10T02:45:51.310Z,0
2016-06-10T02:46:51.312Z,0
2016-06-10T02:47:51.292Z,0
2016-06-10T02:48:51.269Z,0
2016-06-10T02:49:51.247Z,0
2016-06-10T02:50:51.066Z,0
2016-06-10T02:51:51.199Z,0
2016-06-10T02:52:51.034Z,0
2016-06-10T02:53:51.164Z,0
2016-06-10T02:54:51.137Z,0
2016-06-10T02:55:51.830Z,0
2016-06-10T02:56:51.116Z,0
2016-06-10T02:57:51.074Z,0
2016-06-10T02:58:51.046Z,0
2016-06-10T02:59:51.034Z,0
2016-06-10T03:00:51.007Z,0
2016-06-10T03:01:50.995Z,0
2016-06-10T03:02:50.968Z,0
2016-06-10T03:03:50.923Z,0
2016-06-10T03:04:50.754Z,0
2016-06-10T03:05:50.883Z,0
2016-06-10T03:06:50.854Z,0
2016-06-10T03:07:50.827Z,5
2016-06-10T03:08:50.830Z,5
2016-06-10T03:09:50.786Z,5
2016-06-10T03:10:50.773Z,5
2016-06-10T03:11:50.745Z,5
2016-06-10T03:12:50.717Z,5
2016-06-10T03:13:50.673Z,5
2016-06-10T03:14:50.677Z,5
2016-06-10T03:15:50.507Z,5
2016-06-10T03:16:50.620Z,5
2016-06-10T03:17:50.592Z,5
2016-06-10T03:18:50.563Z,10
2016-06-10T03:19:50.535Z,10
2016-06-10T03:20:50.522Z,10
2016-06-10T03:21:50.495Z,10
2016-06-10T03:22:50.467Z,10
2016-06-10T03:23:50.453Z,10
2016-06-10T03:24:50.426Z,15
2016-06-10T03:25:50.491Z,15
2016-06-10T03:26:50.369Z,15
2016-06-10T03:27:50.341Z,15
2016-06-10T03:28:50.328Z,15
2016-06-10T03:29:50.300Z,15
2016-06-10T03:30:50.273Z,20
2016-06-10T03:31:50.259Z,20
2016-06-10T03:32:50.215Z,20
2016-06-10T03:33:50.204Z,20
2016-06-10T03:34:50.018Z,25
2016-06-10T03:35:50.006Z,25
2016-06-10T03:36:50.135Z,25
2016-06-10T03:37:50.106Z,25
2016-06-10T03:38:50.078Z,25
2016-06-10T03:39:50.066Z,20
2016-06-10T03:40:50.615Z,20
2016-06-10T03:41:50.009Z,20
2016-06-10T03:42:49.982Z,20
2016-06-10T03:43:49.968Z,20
2016-06-10T03:44:49.925Z,20
2016-06-10T03:45:49.913Z,25
2016-06-10T03:46:49.868Z,25
2016-06-10T03:47:49.856Z,25
2016-06-10T03:48:49.844Z,30
2016-06-10T03:49:49.800Z,30
2016-06-10T03:50:49.631Z,35
2016-06-10T03:51:49.603Z,40
2016-06-10T03:52:49.731Z,40
2016-06-10T03:53:49.718Z,45
2016-06-10T03:54:49.705Z,45
2016-06-10T03:55:50.005Z,50
2016-06-10T03:56:49.634Z,50
2016-06-10T03:57:49.622Z,50
2016-06-10T03:58:49.578Z,50
2016-06-10T03:59:49.564Z,50
2016-06-10T04:00:49.537Z,50
2016-06-10T04:01:49.524Z,50
2016-06-10T04:02:49.479Z,50
2016-06-10T04:03:49.468Z,55
2016-06-10T04:04:49.439Z,60
2016-06-10T04:05:49.442Z,60
2016-06-10T04:06:49.399Z,65
2016-06-10T04:07:49.370Z,65
2016-06-10T04:08:49.342Z,70
2016-06-10T04:09:49.329Z,70
2016-06-10T04:10:49.536Z,65
2016-06-10T04:11:49.289Z,65
2016-06-10T04:12:49.246Z,65
2016-06-10T04:13:49.217Z,70
2016-06-10T04:14:49.032Z,70
2016-06-10T04:15:49.177Z,75
2016-06-10T04:16:49.147Z,80
2016-06-10T04:17:49.136Z,85
2016-06-10T04:18:48.951Z,90
2016-06-10T04:19:49.079Z,100
2016-06-10T04:20:49.051Z,100
2016-06-10T04:21:49.024Z,110
2016-06-10T04:22:49.026Z,115
2016-06-10T04:23:48.983Z,120
2016-06-10T04:24:48.954Z,120
2016-06-10T04:25:49.754Z,115
2016-06-10T04:26:48.914Z,115
2016-06-10T04:27:48.870Z,110
2016-06-10T04:28:48.873Z,105
2016-06-10T04:29:48.845Z,110
2016-06-10T04:30:48.832Z,105
2016-06-10T04:31:48.788Z,105
2016-06-10T04:32:48.775Z,100
2016-06-10T04:33:48.732Z,100
2016-06-10T04:34:48.719Z,100
2016-06-10T04:35:48.706Z,105
2016-06-10T04:36:48.662Z,105
2016-06-10T04:37:48.650Z,110
2016-06-10T04:38:48.637Z,125
2016-06-10T04:39:48.593Z,140
2016-06-10T04:40:48.659Z,155
2016-06-10T04:41:48.553Z,170
2016-06-10T04:42:48.524Z,185
2016-06-10T04:43:48.497Z,190
2016-06-10T04:44:48.484Z,200
2016-06-10T04:45:48.456Z,210
2016-06-10T04:46:48.428Z,215
2016-06-10T04:47:48.400Z,215
2016-06-10T04:48:48.403Z,220
2016-06-10T04:49:48.218Z,225
2016-06-10T04:50:48.362Z,230
2016-06-10T04:51:48.318Z,225
2016-06-10T04:52:48.291Z,215
2016-06-10T04:53:48.105Z,215
2016-06-10T04:54:48.250Z,205
2016-06-10T04:55:48.830Z,205
2016-06-10T04:56:48.506Z,215
2016-06-10T04:57:48.181Z,230
2016-06-10T04:58:48.152Z,240
2016-06-10T04:59:48.140Z,215
2016-06-10T05:00:48.111Z,215
2016-06-10T05:01:48.083Z,210
2016-06-10T05:02:48.056Z,220
2016-06-10T05:03:48.027Z,225
2016-06-10T05:04:48.014Z,230
2016-06-10T05:05:47.986Z,240
2016-06-10T05:06:47.959Z,265
2016-06-10T05:07:47.945Z,260
2016-06-10T05:08:47.917Z,275
2016-06-10T05:09:47.921Z,280
2016-06-10T05:10:47.892Z,295
2016-06-10T05:11:48.051Z,310
2016-06-10T05:12:47.836Z,350
2016-06-10T05:13:47.823Z,305
2016-06-10T05:14:47.795Z,340
2016-06-10T05:15:47.611Z,375
2016-06-10T05:16:47.739Z,360
2016-06-10T05:17:47.742Z,395
2016-06-10T05:18:47.713Z,450
2016-06-10T05:19:47.686Z,420
2016-06-10T05:20:47.658Z,485
2016-06-10T05:21:47.629Z,385
2016-06-10T05:22:47.617Z,400
2016-06-10T05:23:47.589Z,420
2016-06-10T05:24:47.576Z,435
2016-06-10T05:25:48.470Z,380
2016-06-10T05:26:47.926Z,355
2016-06-10T05:27:47.523Z,360
2016-06-10T05:28:47.479Z,370
2016-06-10T05:29:47.466Z,375
2016-06-10T05:30:47.438Z,405
2016-06-10T05:31:47.425Z,385
2016-06-10T05:32:47.413Z,345
2016-06-10T05:33:47.384Z,330
2016-06-10T05:34:47.357Z,335
2016-06-10T05:35:47.344Z,350
2016-06-10T05:36:47.316Z,350
2016-06-10T05:37:47.304Z,360
2016-06-10T05:38:47.135Z,355
2016-06-10T05:39:47.263Z,355
2016-06-10T05:40:47.766Z,360
2016-06-10T05:41:47.472Z,360
2016-06-10T05:42:47.209Z,390
2016-06-10T05:43:47.182Z,425
2016-06-10T05:44:47.246Z,450
2016-06-10T05:45:47.140Z,420
2016-06-10T05:46:47.127Z,560
2016-06-10T05:47:47.099Z,455
2016-06-10T05:48:47.103Z,570
2016-06-10T05:49:47.059Z,470
2016-06-10T05:50:46.890Z,415
2016-06-10T05:51:47.033Z,420
2016-06-10T05:52:47.021Z,355
2016-06-10T05:53:46.837Z,1150
2016-06-10T05:54:46.965Z,445
2016-06-10T05:55:47.609Z,405
2016-06-10T05:56:46.924Z,1165
2016-06-10T05:57:46.911Z,1165
2016-06-10T05:58:46.900Z,1135
2016-06-10T05:59:46.887Z,1035
2016-06-10T06:00:46.842Z,945
2016-06-10T06:01:46.830Z,965
2016-06-10T06:02:46.817Z,925
2016-06-10T06:03:46.805Z,1080
2016-06-10T06:04:46.777Z,1145
2016-06-10T06:05:46.764Z,1090
2016-06-10T06:06:46.736Z,1180
2016-06-10T06:07:46.739Z,690
2016-06-10T06:08:46.711Z,1095
2016-06-10T06:09:46.683Z,1095
2016-06-10T06:10:47.389Z,1240
2016-06-10T06:11:48.923Z,1265
2016-06-10T06:12:46.692Z,415
2016-06-10T06:13:46.649Z,685
2016-06-10T06:14:46.620Z,510
2016-06-10T06:15:46.608Z,560
2016-06-10T06:16:46.595Z,320
2016-06-10T06:17:46.583Z,300
2016-06-10T06:18:46.570Z,305
2016-06-10T06:19:46.604Z,1320
2016-06-10T06:20:46.514Z,1280
2016-06-10T06:21:46.517Z,340
2016-06-10T06:22:46.488Z,290
2016-06-10T06:23:46.351Z,265
2016-06-10T06:24:46.463Z,255
2016-06-10T06:25:46.466Z,285
2016-06-10T06:26:46.329Z,350
2016-06-10T06:27:46.442Z,1185
2016-06-10T06:28:46.414Z,765
2016-06-10T06:29:46.384Z,1480
2016-06-10T06:30:46.200Z,1465
2016-06-10T06:31:46.360Z,465
2016-06-10T06:32:46.363Z,350
2016-06-10T06:33:46.319Z,410
2016-06-10T06:34:46.307Z,1095
2016-06-10T06:35:46.294Z,1225
2016-06-10T06:36:46.281Z,645
2016-06-10T06:37:46.269Z,495
2016-06-10T06:38:46.256Z,400
2016-06-10T06:39:46.259Z,510
2016-06-10T06:40:46.201Z,700
2016-06-10T06:41:46.406Z,1725
2016-06-10T06:42:46.049Z,760
2016-06-10T06:43:46.178Z,610
2016-06-10T06:44:46.150Z,820
2016-06-10T06:45:46.138Z,900
2016-06-10T06:46:46.109Z,685
2016-06-10T06:47:46.112Z,1130
2016-06-10T06:48:45.928Z,895
2016-06-10T06:49:46.056Z,1095
2016-06-10T06:50:46.106Z,735
2016-06-10T06:51:46.032Z,920
2016-06-10T06:52:46.018Z,880
2016-06-10T06:53:46.005Z,1030
2016-06-10T06:54:45.993Z,1735
2016-06-10T06:55:45.980Z,1675
2016-06-10T06:56:47.687Z,1245
2016-06-10T06:57:45.956Z,1440
2016-06-10T06:58:45.943Z,1780
2016-06-10T06:59:45.914Z,1665
2016-06-10T07:00:45.902Z,1650
2016-06-10T07:01:45.905Z,1175
2016-06-10T07:02:45.893Z,1105
2016-06-10T07:03:45.880Z,795
2016-06-10T07:04:45.868Z,745
2016-06-10T07:05:45.855Z,940
2016-06-10T07:06:45.827Z,775
2016-06-10T07:07:45.815Z,1620
2016-06-10T07:08:45.818Z,800
2016-06-10T07:09:45.790Z,1510
2016-06-10T07:10:45.792Z,870
2016-06-10T07:11:45.624Z,985
2016-06-10T07:12:45.783Z,1265
2016-06-10T07:13:45.739Z,1330
2016-06-10T07:14:45.586Z,1070
2016-06-10T07:15:45.714Z,1575
2016-06-10T07:16:45.717Z,1560
2016-06-10T07:17:45.704Z,1380
2016-06-10T07:18:45.707Z,1185
2016-06-10T07:19:45.679Z,1175
2016-06-10T07:20:45.667Z,1210
2016-06-10T07:21:45.654Z,885
2016-06-10T07:22:45.657Z,765
2016-06-10T07:23:45.472Z,925
2016-06-10T07:24:46.648Z,1120
2016-06-10T07:25:45.620Z,1060
2016-06-10T07:26:45.607Z,925
2016-06-10T07:27:45.595Z,2080
2016-06-10T07:28:45.801Z,1225
2016-06-10T07:29:45.569Z,985
2016-06-10T07:30:45.558Z,1115
2016-06-10T07:31:45.544Z,1085
2016-06-10T07:32:45.547Z,1315
2016-06-10T07:33:45.536Z,1370
2016-06-10T07:34:45.538Z,1750
2016-06-10T07:35:45.525Z,1710
2016-06-10T07:36:45.325Z,1155
2016-06-10T07:37:45.516Z,1475
2016-06-10T07:38:45.457Z,1530
2016-06-10T07:39:45.554Z,1640
2016-06-10T07:40:45.463Z,1250
2016-06-10T07:41:45.466Z,1145
2016-06-10T07:42:45.453Z,1225
2016-06-10T07:43:45.426Z,1875
2016-06-10T07:44:45.412Z,1755
2016-06-10T07:45:45.259Z,1600
2016-06-10T07:46:45.403Z,1805
2016-06-10T07:47:45.390Z,1770
2016-06-10T07:48:45.253Z,1860
2016-06-10T07:49:45.365Z,1855
2016-06-10T07:50:45.369Z,1810
2016-06-10T07:51:45.418Z,1815
2016-06-10T07:52:45.358Z,1655
2016-06-10T07:53:45.347Z,1735
2016-06-10T07:54:45.350Z,1745
2016-06-10T07:55:45.337Z,1845
2016-06-10T07:56:45.574Z,1815
2016-06-10T07:57:45.328Z,1780
2016-06-10T07:58:45.315Z,1690
2016-06-10T07:59:45.333Z,1690
2016-06-10T08:00:45.306Z,1605
2016-06-10T08:01:45.325Z,1615
2016-06-10T08:02:45.295Z,1690
2016-06-10T08:03:45.299Z,1730
2016-06-10T08:04:45.287Z,1780
2016-06-10T08:05:45.305Z,1835
2016-06-10T08:06:45.277Z,1775
2016-06-10T08:07:45.265Z,1745
2016-06-10T08:08:45.268Z,1780
2016-06-10T08:09:45.146Z,1800
2016-06-10T08:10:45.258Z,1810
2016-06-10T08:11:45.261Z,1860
2016-06-10T08:12:45.265Z,1690
2016-06-10T08:13:45.252Z,1710
2016-06-10T08:14:45.223Z,1795
2016-06-10T08:15:45.227Z,1830
2016-06-10T08:16:45.246Z,1870
2016-06-10T08:17:45.216Z,1920
2016-06-10T08:18:45.064Z,1950
2016-06-10T08:19:45.208Z,1990
2016-06-10T08:20:59.367Z,2025
2016-06-10T08:21:45.214Z,2030
2016-06-10T08:22:45.217Z,2020
2016-06-10T08:23:45.204Z,2025
2016-06-10T08:24:45.442Z,1930
2016-06-10T08:25:45.195Z,2010
2016-06-10T08:26:45.026Z,1995
2016-06-10T08:27:45.185Z,1925
2016-06-10T08:28:45.188Z,1820
2016-06-10T08:29:45.191Z,1675
2016-06-10T08:30:45.178Z,1685
2016-06-10T08:31:45.182Z,1710
2016-06-10T08:32:45.169Z,1760
2016-06-10T08:33:45.172Z,1920
2016-06-10T08:34:45.159Z,1865
2016-06-10T08:35:45.163Z,2070
2016-06-10T08:36:45.166Z,2100
2016-06-10T08:37:45.153Z,1810
2016-06-10T08:38:45.156Z,2080
2016-06-10T08:39:45.144Z,2040
2016-06-10T08:40:45.162Z,2045
2016-06-10T08:41:45.151Z,2005
2016-06-10T08:42:45.137Z,1645
2016-06-10T08:43:45.140Z,1720
2016-06-10T08:44:45.128Z,1800
2016-06-10T08:45:45.131Z,1855
2016-06-10T08:46:45.119Z,2020
2016-06-10T08:47:45.122Z,1330
2016-06-10T08:48:45.125Z,1500
2016-06-10T08:49:44.956Z,1675
2016-06-10T08:50:45.115Z,1720
2016-06-10T08:51:44.962Z,1930
2016-06-10T08:52:45.106Z,1935
2016-06-10T08:53:45.093Z,1930
2016-06-10T08:54:45.081Z,1895
2016-06-10T08:55:45.084Z,1985
2016-06-10T08:56:46.258Z,2010
2016-06-10T08:57:45.090Z,2010
2016-06-10T08:58:45.093Z,1945
2016-06-10T08:59:45.065Z,1790
2016-06-10T09:00:45.068Z,1910
2016-06-10T09:01:45.056Z,1190
2016-06-10T09:02:45.043Z,405
2016-06-10T09:03:45.062Z,300
2016-06-10T09:04:44.908Z,260
2016-06-10T09:05:45.037Z,265
2016-06-10T09:06:45.040Z,255
2016-06-10T09:07:45.027Z,250
2016-06-10T09:08:45.030Z,255
2016-06-10T09:09:45.017Z,255
2016-06-10T09:10:45.004Z,265
2016-06-10T09:11:45.757Z,265
2016-06-10T09:12:44.964Z,280
2016-06-10T09:13:45.014Z,275
2016-06-10T09:14:44.971Z,265
2016-06-10T09:15:44.973Z,250
2016-06-10T09:16:44.961Z,250
2016-06-10T09:17:44.948Z,250
2016-06-10T09:18:44.936Z,250
2016-06-10T09:19:44.939Z,260
2016-06-10T09:20:44.926Z,275
2016-06-10T09:21:44.913Z,290
2016-06-10T09:22:44.916Z,315
2016-06-10T09:23:44.889Z,335
2016-06-10T09:24:44.877Z,345
2016-06-10T09:25:44.864Z,355
2016-06-10T09:26:44.570Z,350
2016-06-10T09:27:45.276Z,350
2016-06-10T09:28:44.841Z,365
2016-06-10T09:29:44.829Z,395
2016-06-10T09:30:44.645Z,405
2016-06-10T09:31:44.788Z,395
2016-06-10T09:32:44.761Z,365
2016-06-10T09:33:44.763Z,335
2016-06-10T09:34:44.782Z,305
2016-06-10T09:35:44.738Z,295
2016-06-10T09:36:44.741Z,305
2016-06-10T09:37:44.712Z,345
2016-06-10T09:38:44.715Z,385
2016-06-10T09:39:44.532Z,430
2016-06-10T09:40:44.519Z,495
2016-06-10T09:41:44.663Z,570
2016-06-10T09:42:45.572Z,630
2016-06-10T09:43:44.669Z,670
2016-06-10T09:44:44.609Z,665
2016-06-10T09:45:44.597Z,685
2016-06-10T09:46:44.584Z,685
2016-06-10T09:47:44.572Z,675
2016-06-10T09:48:44.576Z,660
2016-06-10T09:49:44.547Z,645
2016-06-10T09:50:44.534Z,605
2016-06-10T09:51:44.506Z,575
2016-06-10T09:52:44.525Z,550
2016-06-10T09:53:44.497Z,530
2016-06-10T09:54:44.484Z,530
2016-06-10T09:55:44.472Z,510
2016-06-10T09:56:44.443Z,495
2016-06-10T09:57:44.774Z,470
2016-06-10T09:58:44.418Z,430
2016-06-10T09:59:44.405Z,400
2016-06-10T10:00:44.237Z,400
2016-06-10T10:01:44.396Z,400
2016-06-10T10:02:44.368Z,415
2016-06-10T10:03:44.356Z,440
2016-06-10T10:04:44.328Z,425
2016-06-10T10:05:44.346Z,415
2016-06-10T10:06:44.318Z,420
2016-06-10T10:07:44.134Z,390
2016-06-10T10:08:44.293Z,380
2016-06-10T10:09:44.280Z,350
2016-06-10T10:10:44.252Z,345
2016-06-10T10:11:44.099Z,310
2016-06-10T10:12:43.805Z,280
2016-06-10T10:13:44.230Z,260
2016-06-10T10:14:44.217Z,250
2016-06-10T10:15:44.034Z,225
2016-06-10T10:16:44.020Z,215
2016-06-10T10:17:44.179Z,180
2016-06-10T10:18:43.995Z,190
2016-06-10T10:19:44.139Z,200
2016-06-10T10:20:43.970Z,195
2016-06-10T10:21:44.097Z,190
2016-06-10T10:22:44.070Z,190
2016-06-10T10:23:44.073Z,190
2016-06-10T10:24:44.076Z,185
2016-06-10T10:25:43.907Z,180
2016-06-10T10:26:43.879Z,175
2016-06-10T10:27:44.132Z,170
2016-06-10T10:28:44.010Z,170
2016-06-10T10:29:43.669Z,165
2016-06-10T10:30:43.969Z,170
2016-06-10T10:31:43.941Z,170
2016-06-10T10:32:43.772Z,170
2016-06-10T10:33:43.917Z,170
2016-06-10T10:34:43.920Z,170
2016-06-10T10:35:43.735Z,165
2016-06-10T10:36:43.894Z,170
2016-06-10T10:37:43.851Z,170
2016-06-10T10:38:43.838Z,170
2016-06-10T10:39:43.857Z,165
2016-06-10T10:40:43.814Z,165
2016-06-10T10:41:43.645Z,170
2016-06-10T10:42:44.288Z,170
2016-06-10T10:43:43.759Z,175
2016-06-10T10:44:43.779Z,185
2016-06-10T10:45:43.813Z,195
2016-06-10T10:46:43.799Z,210
2016-06-10T10:47:43.552Z,215
2016-06-10T10:48:43.680Z,215
2016-06-10T10:49:43.653Z,210
2016-06-10T10:50:43.500Z,205
2016-06-10T10:51:43.628Z,195
2016-06-10T10:52:43.443Z,190
2016-06-10T10:53:43.431Z,190
2016-06-10T10:54:43.418Z,185
2016-06-10T10:55:43.547Z,180
2016-06-10T10:56:43.535Z,175
2016-06-10T10:57:44.803Z,175
2016-06-10T10:58:43.525Z,180
2016-06-10T10:59:43.511Z,185
2016-06-10T11:00:43.327Z,205
2016-06-10T11:01:43.455Z,220
2016-06-10T11:02:43.287Z,235
2016-06-10T11:03:43.446Z,230
2016-06-10T11:04:43.418Z,235
2016-06-10T11:05:43.390Z,225
2016-06-10T11:06:43.393Z,215
2016-06-10T11:07:43.380Z,210
2016-06-10T11:08:43.367Z,210
2016-06-10T11:09:43.324Z,205
2016-06-10T11:10:43.328Z,205
2016-06-10T11:11:43.142Z,205
2016-06-10T11:12:43.927Z,200
2016-06-10T11:13:43.273Z,200
2016-06-10T11:14:43.260Z,200
2016-06-10T11:15:43.249Z,205
2016-06-10T11:16:43.221Z,220
2016-06-10T11:17:43.052Z,230
2016-06-10T11:18:43.195Z,245
2016-06-10T11:19:43.167Z,255
2016-06-10T11:20:43.155Z,280
2016-06-10T11:21:43.158Z,310
2016-06-10T11:22:43.129Z,345
2016-06-10T11:23:43.118Z,360
2016-06-10T11:24:43.120Z,370
2016-06-10T11:25:43.077Z,355
2016-06-10T11:26:43.064Z,345
2016-06-10T11:27:43.114Z,330
2016-06-10T11:28:43.726Z,325
2016-06-10T11:29:43.025Z,325
2016-06-10T11:30:42.998Z,340
2016-06-10T11:31:42.985Z,320
2016-06-10T11:32:42.973Z,320
2016-06-10T11:33:42.960Z,320
2016-06-10T11:34:42.947Z,305
2016-06-10T11:35:42.919Z,280
2016-06-10T11:36:42.907Z,260
2016-06-10T11:37:42.894Z,250
2016-06-10T11:38:42.882Z,225
2016-06-10T11:39:42.870Z,210
2016-06-10T11:40:42.840Z,175
2016-06-10T11:41:42.859Z,170
2016-06-10T11:42:42.660Z,165
2016-06-10T11:43:42.819Z,160
2016-06-10T11:44:42.845Z,155
2016-06-10T11:45:42.871Z,155
2016-06-10T11:46:42.883Z,155
2016-06-10T11:47:42.909Z,150
2016-06-10T11:48:42.926Z,155
2016-06-10T11:49:42.913Z,155
2016-06-10T11:50:42.914Z,150
2016-06-10T11:51:42.932Z,160
2016-06-10T11:52:42.933Z,150
2016-06-10T11:53:42.899Z,150
2016-06-10T11:54:42.907Z,155
2016-06-10T11:55:42.900Z,155
2016-06-10T11:56:42.737Z,165
2016-06-10T11:57:43.292Z,155
2016-06-10T11:58:43.502Z,155
2016-06-10T11:59:42.834Z,155
2016-06-10T12:00:42.839Z,155
2016-06-10T12:01:42.829Z,155
2016-06-10T12:02:42.788Z,160
2016-06-10T12:03:42.792Z,160
2016-06-10T12:04:42.795Z,160
2016-06-10T12:05:42.752Z,160
2016-06-10T12:06:42.739Z,160
2016-06-10T12:07:42.727Z,160
2016-06-10T12:08:42.715Z,155
2016-06-10T12:09:42.687Z,155
2016-06-10T12:10:42.691Z,155
2016-06-10T12:11:42.507Z,155
2016-06-10T12:12:43.573Z,155
2016-06-10T12:13:42.655Z,150
2016-06-10T12:14:42.625Z,150
2016-06-10T12:15:42.614Z,150
2016-06-10T12:16:42.600Z,150
2016-06-10T12:17:42.557Z,150
2016-06-10T12:18:42.576Z,150
2016-06-10T12:19:42.532Z,150
2016-06-10T12:20:42.535Z,150
2016-06-10T12:21:42.507Z,150
2016-06-10T12:22:42.479Z,155
2016-06-10T12:23:42.451Z,155
2016-06-10T12:24:42.470Z,145
2016-06-10T12:25:42.441Z,145
2016-06-10T12:26:42.428Z,155
2016-06-10T12:27:44.354Z,160
2016-06-10T12:28:43.356Z,155
2016-06-10T12:29:42.376Z,160
2016-06-10T12:30:42.363Z,160
2016-06-10T12:31:42.334Z,165
2016-06-10T12:32:42.321Z,165
2016-06-10T12:33:42.325Z,165
2016-06-10T12:34:42.281Z,160
2016-06-10T12:35:42.269Z,160
2016-06-10T12:36:42.287Z,160
2016-06-10T12:37:42.103Z,160
2016-06-10T12:38:42.232Z,160
2016-06-10T12:39:42.218Z,165
2016-06-10T12:40:42.205Z,170
2016-06-10T12:41:42.208Z,160
2016-06-10T12:42:42.712Z,160
2016-06-10T12:43:41.950Z,165
2016-06-10T12:44:41.984Z,170
2016-06-10T12:45:42.128Z,175
2016-06-10T12:46:42.099Z,180
2016-06-10T12:47:42.084Z,185
2016-06-10T12:48:41.931Z,190
2016-06-10T12:49:41.902Z,195
2016-06-10T12:50:42.046Z,200
2016-06-10T12:51:42.019Z,210
2016-06-10T12:52:41.849Z,210
2016-06-10T12:53:41.853Z,215
2016-06-10T12:54:41.995Z,220
2016-06-10T12:55:41.952Z,225
2016-06-10T12:56:41.955Z,240
2016-06-10T12:57:42.224Z,250
2016-06-10T12:58:41.758Z,260
2016-06-10T12:59:41.902Z,280
2016-06-10T13:00:41.889Z,290
2016-06-10T13:01:41.876Z,290
2016-06-10T13:02:41.864Z,295
2016-06-10T13:03:41.836Z,285
2016-06-10T13:04:41.808Z,275
2016-06-10T13:05:41.811Z,275
2016-06-10T13:06:41.782Z,260
2016-06-10T13:07:41.786Z,250
2016-06-10T13:08:41.601Z,250
2016-06-10T13:09:41.574Z,250
2016-06-10T13:10:41.716Z,240
2016-06-10T13:11:41.688Z,225
2016-06-10T13:12:41.692Z,225
2016-06-10T13:13:43.085Z,230
2016-06-10T13:14:41.511Z,245
2016-06-10T13:15:41.654Z,235
2016-06-10T13:16:41.642Z,235
2016-06-10T13:17:41.629Z,230
2016-06-10T13:18:41.601Z,225
2016-06-10T13:19:41.416Z,220
2016-06-10T13:20:41.575Z,225
2016-06-10T13:21:41.563Z,225
2016-06-10T13:22:41.536Z,225
2016-06-10T13:23:41.367Z,220
2016-06-10T13:24:41.510Z,225
2016-06-10T13:25:41.513Z,235
2016-06-10T13:26:41.485Z,250
2016-06-10T13:27:41.472Z,265
2016-06-10T13:28:41.788Z,275
2016-06-10T13:29:41.291Z,290
2016-06-10T13:30:41.419Z,300
2016-06-10T13:31:41.406Z,300
2016-06-10T13:32:41.237Z,305
2016-06-10T13:33:41.382Z,305
2016-06-10T13:34:41.369Z,315
2016-06-10T13:35:41.372Z,315
2016-06-10T13:36:41.171Z,310
2016-06-10T13:37:41.316Z,305
2016-06-10T13:38:41.303Z,300
2016-06-10T13:39:41.150Z,290
2016-06-10T13:40:54.015Z,280
2016-06-10T13:41:41.265Z,280
2016-06-10T13:42:41.253Z,270
2016-06-10T13:43:41.443Z,265
2016-06-10T13:44:41.243Z,270
2016-06-10T13:45:41.199Z,265
2016-06-10T13:46:41.202Z,260
2016-06-10T13:47:41.003Z,265
2016-06-10T13:48:41.161Z,255
2016-06-10T13:49:41.149Z,250
2016-06-10T13:50:41.136Z,240
2016-06-10T13:51:40.983Z,235
2016-06-10T13:52:41.095Z,225
2016-06-10T13:53:41.115Z,215
2016-06-10T13:54:41.087Z,215
2016-06-10T13:55:41.058Z,210
2016-06-10T13:56:40.890Z,205